Time;durP1;ratioP1;P1;durP2;ratioP2;P2;SDS_P1;SDS_P2;PMS_P1;PMS_P2;Temp;Humidity;BMP_temperature;BMP_pressure;BME280_temperature;BME280_humidity;BME280_pressure;Samples;Min_cycle;Max_cycle;Signal;HPM_P1;HPM_P2
2021/12/06 00:01:21;;;;;;;10.27;3.75;;;18.90;50.60;;;;;;4780137;29;20190;-83
2021/12/06 00:03:56;;;;;;;6.97;3.40;;;18.90;50.30;;;;;;4810269;29;20158;-83
2021/12/06 00:06:23;;;;;;;9.75;3.42;;;18.90;50.50;;;;;;4795564;29;20230;-83
2021/12/06 00:08:51;;;;;;;10.88;3.80;;;18.90;50.50;;;;;;4809997;29;20170;-83
2021/12/06 00:11:17;;;;;;;12.82;3.70;;;18.90;50.40;;;;;;4794880;29;20197;-83
2021/12/06 00:13:44;;;;;;;11.02;3.80;;;18.90;50.50;;;;;;4780696;29;20167;-83
2021/12/06 00:16:14;;;;;;;10.65;3.97;;;18.90;50.50;;;;;;4780029;29;20224;-83
2021/12/06 00:18:42;;;;;;;11.80;3.50;;;18.90;50.40;;;;;;4781372;29;20293;-83
2021/12/06 00:21:07;;;;;;;13.02;4.03;;;18.90;50.50;;;;;;4794917;29;20685;-83
2021/12/06 00:23:34;;;;;;;8.52;3.30;;;18.90;50.50;;;;;;4794750;29;20249;-83
2021/12/06 00:26:01;;;;;;;10.32;3.50;;;18.90;50.40;;;;;;4795117;29;20162;-83
2021/12/06 00:28:27;;;;;;;9.52;3.47;;;18.80;50.50;;;;;;4795014;29;20169;-83
2021/12/06 00:30:52;;;;;;;9.27;3.53;;;18.90;50.20;;;;;;4794544;29;20568;-83
2021/12/06 00:33:18;;;;;;;10.32;4.10;;;18.90;50.50;;;;;;4780080;29;20173;-84
2021/12/06 00:35:44;;;;;;;8.63;3.40;;;18.90;50.20;;;;;;4826865;29;20245;-84
2021/12/06 00:38:19;;;;;;;8.68;3.30;;;18.90;50.30;;;;;;4795590;29;20211;-84
2021/12/06 00:40:46;;;;;;;9.23;3.60;;;18.80;50.20;;;;;;4795789;29;20235;-83
2021/12/06 00:43:15;;;;;;;8.98;3.53;;;18.90;50.40;;;;;;4810435;29;20618;-84
2021/12/06 00:45:41;;;;;;;10.55;3.67;;;18.80;50.30;;;;;;4809980;29;20225;-84
2021/12/06 00:48:07;;;;;;;11.00;3.42;;;18.80;50.40;;;;;;4810202;29;20277;-84
2021/12/06 00:50:36;;;;;;;14.85;3.47;;;18.80;50.50;;;;;;4795024;29;20167;-84
2021/12/06 00:53:13;;;;;;;10.30;3.60;;;18.80;50.40;;;;;;4810694;29;20158;-84
2021/12/06 00:55:38;;;;;;;9.02;3.58;;;18.80;50.50;;;;;;4810236;29;20162;-84
2021/12/06 00:58:11;;;;;;;8.63;3.63;;;18.80;50.20;;;;;;4810141;29;20171;-84
2021/12/06 01:00:42;;;;;;;10.30;3.40;;;18.80;50.40;;;;;;4794950;29;20166;-83
2021/12/06 01:03:15;;;;;;;12.43;3.40;;;18.80;50.30;;;;;;4794396;29;20750;-84
2021/12/06 01:05:41;;;;;;;10.07;3.33;;;18.80;50.30;;;;;;4794798;29;20170;-84
2021/12/06 01:08:07;;;;;;;9.25;3.30;;;18.80;50.40;;;;;;4795164;29;20661;-84
2021/12/06 01:10:33;;;;;;;10.50;3.17;;;18.80;50.20;;;;;;4795012;29;20162;-84
2021/12/06 01:12:59;;;;;;;11.05;3.47;;;18.80;50.20;;;;;;4809888;29;20645;-84
2021/12/06 01:15:29;;;;;;;9.65;3.10;;;18.80;50.30;;;;;;4809648;29;20162;-84
2021/12/06 01:17:55;;;;;;;10.75;3.42;;;18.80;50.30;;;;;;4809773;29;20150;-84
2021/12/06 01:20:31;;;;;;;8.45;3.70;;;18.80;50.10;;;;;;4779732;29;20166;-84
2021/12/06 01:23:04;;;;;;;9.52;3.38;;;18.80;50.40;;;;;;4780708;29;20171;-85
2021/12/06 01:26:09;;;;;;;12.25;3.65;;;18.80;50.20;;;;;;4795690;29;20208;-84
2021/12/06 01:29:01;;;;;;;8.63;3.55;;;18.80;50.40;;;;;;4812345;29;20178;-84
2021/12/06 01:31:38;;;;;;;10.40;3.55;;;18.80;50.30;;;;;;4825597;29;20245;-84
2021/12/06 01:39:44;;;;;;;9.93;3.15;;;18.70;50.20;;;;;;4810944;29;20162;-84
2021/12/06 01:42:10;;;;;;;8.57;3.88;;;18.80;50.10;;;;;;4809551;29;20173;-84
2021/12/06 01:44:42;;;;;;;12.35;3.53;;;18.80;50.20;;;;;;4794378;29;20166;-84
2021/12/06 01:47:13;;;;;;;7.85;3.10;;;18.70;50.20;;;;;;4779899;29;20362;-84
2021/12/06 01:49:53;;;;;;;11.07;3.47;;;18.70;50.10;;;;;;4794301;29;20201;-84
2021/12/06 01:52:21;;;;;;;8.00;3.40;;;18.70;50.10;;;;;;4809141;29;20313;-84
2021/12/06 01:54:50;;;;;;;8.98;3.83;;;18.70;50.30;;;;;;4809367;29;20386;-84
2021/12/06 01:57:17;;;;;;;8.45;3.33;;;18.70;50.10;;;;;;4778978;29;20663;-84
2021/12/06 01:59:49;;;;;;;8.85;3.10;;;18.70;50.10;;;;;;4779454;29;20553;-83
2021/12/06 02:02:15;;;;;;;8.95;3.38;;;18.70;50.80;;;;;;4794155;29;20585;-84
2021/12/06 02:04:41;;;;;;;8.60;3.33;;;18.70;50.20;;;;;;4794545;29;20260;-84
2021/12/06 02:07:14;;;;;;;12.55;3.95;;;18.70;50.00;;;;;;4779112;29;20299;-84
2021/12/06 02:09:40;;;;;;;9.63;3.50;;;18.70;50.10;;;;;;4780233;29;20571;-83
2021/12/06 02:12:09;;;;;;;9.85;3.25;;;18.70;49.90;;;;;;4778752;29;20198;-84
2021/12/06 02:14:54;;;;;;;9.73;3.10;;;18.80;49.90;;;;;;4778694;29;20286;-84
2021/12/06 02:17:25;;;;;;;10.65;3.63;;;18.80;50.00;;;;;;4811349;29;20154;-84
2021/12/06 02:19:59;;;;;;;8.13;3.50;;;18.70;50.00;;;;;;4809774;29;20165;-84
2021/12/06 02:22:26;;;;;;;12.15;3.22;;;18.70;49.80;;;;;;4794314;29;20274;-84
2021/12/06 02:24:53;;;;;;;9.88;3.78;;;18.80;49.90;;;;;;4824948;29;20656;-84
2021/12/06 02:27:19;;;;;;;10.40;3.47;;;18.70;50.00;;;;;;4778790;29;20178;-84
2021/12/06 02:29:45;;;;;;;7.35;3.50;;;18.70;49.90;;;;;;4793574;29;20261;-83
2021/12/06 02:32:13;;;;;;;6.38;3.20;;;18.80;50.00;;;;;;4778811;29;20216;-84
2021/12/06 02:34:41;;;;;;;6.55;3.25;;;18.70;49.80;;;;;;4779705;29;20178;-84
2021/12/06 02:37:09;;;;;;;7.85;3.00;;;18.70;49.90;;;;;;4793599;29;20158;-84
2021/12/06 02:39:37;;;;;;;6.90;3.30;;;18.70;49.80;;;;;;4779644;29;20178;-83
2021/12/06 02:42:03;;;;;;;9.15;3.40;;;18.70;49.80;;;;;;4793565;29;20170;-84
2021/12/06 02:44:39;;;;;;;9.00;3.40;;;18.70;49.90;;;;;;4793380;29;20158;-84
2021/12/06 02:47:05;;;;;;;8.80;3.15;;;18.70;49.90;;;;;;4793493;29;20595;-84
2021/12/06 02:49:34;;;;;;;8.00;3.08;;;18.70;49.80;;;;;;4793360;29;20710;-84
2021/12/06 02:52:08;;;;;;;8.75;3.55;;;18.70;49.80;;;;;;4808540;29;20201;-83
2021/12/06 02:54:35;;;;;;;10.48;3.03;;;18.70;50.00;;;;;;4793726;29;20174;-84
2021/12/06 02:59:43;;;;;;;11.68;3.15;;;18.60;49.80;;;;;;4796926;29;20181;-84
2021/12/06 03:02:12;;;;;;;9.43;3.50;;;18.70;49.90;;;;;;4778134;29;20221;-83
2021/12/06 03:04:38;;;;;;;6.75;2.85;;;18.70;49.80;;;;;;4793286;29;20171;-84
2021/12/06 03:07:05;;;;;;;6.70;3.17;;;18.70;49.70;;;;;;4793737;29;20170;-83
2021/12/06 03:09:34;;;;;;;6.80;3.20;;;18.70;49.70;;;;;;4793062;29;20165;-84
2021/12/06 03:12:03;;;;;;;8.40;3.60;;;18.70;49.90;;;;;;4793303;29;20593;-84
2021/12/06 03:14:38;;;;;;;9.95;3.25;;;18.70;49.70;;;;;;4793444;29;20649;-84
2021/12/06 03:17:06;;;;;;;8.23;3.33;;;18.70;49.90;;;;;;4793359;29;20154;-84
2021/12/06 03:19:31;;;;;;;7.75;3.05;;;18.70;49.80;;;;;;4778174;29;20181;-84
2021/12/06 03:21:59;;;;;;;9.20;3.40;;;18.70;49.70;;;;;;4824187;29;20167;-84
2021/12/06 03:24:25;;;;;;;8.32;3.40;;;18.70;49.60;;;;;;4808172;29;20163;-84
2021/12/06 03:26:51;;;;;;;5.82;2.90;;;18.70;49.60;;;;;;4810725;29;20170;-84
2021/12/06 03:29:17;;;;;;;8.25;3.33;;;18.70;49.40;;;;;;4811323;29;20162;-83
2021/12/06 03:31:43;;;;;;;7.85;3.58;;;18.80;49.70;;;;;;4827488;29;20201;-84
2021/12/06 03:34:09;;;;;;;5.65;2.85;;;18.70;49.40;;;;;;4781037;29;20276;-84
2021/12/06 03:36:36;;;;;;;7.45;3.35;;;18.70;49.80;;;;;;4781540;29;20202;-84
2021/12/06 03:39:20;;;;;;;7.35;2.95;;;18.70;49.70;;;;;;4796201;29;20215;-84
2021/12/06 03:41:51;;;;;;;7.80;3.05;;;18.70;49.60;;;;;;4812622;29;20595;-84
2021/12/06 03:44:18;;;;;;;10.10;3.58;;;18.70;49.50;;;;;;4796597;29;20191;-84
2021/12/06 03:46:43;;;;;;;10.25;3.20;;;18.70;49.50;;;;;;4810753;29;20237;-84
2021/12/06 03:49:11;;;;;;;7.47;3.00;;;18.70;49.70;;;;;;4796056;29;20182;-84
2021/12/06 03:51:37;;;;;;;6.72;2.85;;;18.70;49.40;;;;;;4795872;29;20220;-84
2021/12/06 03:54:05;;;;;;;5.47;2.97;;;18.70;49.50;;;;;;4810995;29;20618;-84
2021/12/06 03:56:31;;;;;;;7.10;2.75;;;18.70;49.50;;;;;;4795520;29;20189;-84
2021/12/06 03:58:57;;;;;;;7.65;2.92;;;18.70;49.40;;;;;;4810832;29;20198;-84
2021/12/06 04:01:23;;;;;;;7.03;2.85;;;18.70;49.50;;;;;;4811058;29;20258;-84
2021/12/06 04:03:48;;;;;;;11.75;3.50;;;18.70;49.20;;;;;;4810306;29;20665;-84
2021/12/06 04:06:14;;;;;;;7.57;3.47;;;18.70;49.40;;;;;;4827065;29;20237;-84
2021/12/06 04:08:40;;;;;;;9.93;3.45;;;18.70;49.40;;;;;;4795382;29;20678;-84
2021/12/06 04:11:07;;;;;;;7.70;3.85;;;18.70;49.30;;;;;;4795579;29;20214;-84
2021/12/06 04:13:33;;;;;;;6.20;2.78;;;18.60;49.20;;;;;;4795727;29;20166;-84
2021/12/06 04:15:59;;;;;;;5.75;2.67;;;18.70;48.80;;;;;;4780751;29;20209;-84
2021/12/06 04:18:26;;;;;;;8.35;2.95;;;18.70;48.90;;;;;;4780972;29;20196;-84
2021/12/06 04:21:05;;;;;;;7.00;3.10;;;18.70;48.50;;;;;;4796063;29;20624;-84
2021/12/06 04:23:33;;;;;;;9.43;2.85;;;18.70;48.70;;;;;;4795410;29;20245;-84
2021/12/06 04:26:08;;;;;;;10.55;3.42;;;18.70;48.30;;;;;;4795774;29;20207;-84
2021/12/06 04:28:35;;;;;;;7.75;2.65;;;18.80;48.40;;;;;;4795428;29;20169;-84
2021/12/06 04:31:08;;;;;;;4.63;3.00;;;18.90;48.20;;;;;;4796116;29;20197;-84
2021/12/06 04:33:34;;;;;;;6.53;2.83;;;18.90;48.20;;;;;;4795545;29;20205;-84
2021/12/06 04:36:00;;;;;;;7.18;3.05;;;18.90;48.10;;;;;;4810765;29;20197;-84
2021/12/06 04:38:25;;;;;;;8.68;3.00;;;18.90;48.00;;;;;;4810296;29;20203;-84
2021/12/06 04:41:04;;;;;;;6.03;2.75;;;18.90;48.10;;;;;;4810242;29;20215;-84
2021/12/06 04:43:30;;;;;;;7.15;2.83;;;18.90;47.90;;;;;;4788414;30;20214;-84
2021/12/06 04:45:56;;;;;;;6.43;2.95;;;19.00;47.60;;;;;;4787904;30;20215;-84
2021/12/06 04:48:31;;;;;;;6.68;2.80;;;19.00;47.80;;;;;;4788573;30;20171;-84
2021/12/06 04:50:56;;;;;;;8.27;3.08;;;19.00;47.70;;;;;;4773886;30;20227;-84
2021/12/06 04:53:24;;;;;;;6.85;2.88;;;19.00;47.40;;;;;;4788164;30;20224;-84
2021/12/06 04:56:21;;;;;;;6.60;2.72;;;19.00;47.50;;;;;;4773504;30;20202;-84
2021/12/06 04:58:52;;;;;;;5.97;2.53;;;19.00;47.40;;;;;;4788503;30;20262;-84
2021/12/06 05:01:24;;;;;;;6.43;2.38;;;19.10;47.30;;;;;;4773039;30;20253;-84
2021/12/06 05:04:01;;;;;;;6.68;3.00;;;19.10;47.10;;;;;;4773346;30;20581;-84
2021/12/06 05:06:28;;;;;;;6.32;2.60;;;19.10;47.10;;;;;;4773131;30;20532;-84
2021/12/06 05:09:15;;;;;;;5.28;2.45;;;19.00;47.00;;;;;;4807547;29;20182;-84
2021/12/06 05:11:50;;;;;;;6.63;2.60;;;19.10;47.10;;;;;;4809594;29;20197;-84
2021/12/06 05:14:16;;;;;;;4.55;2.40;;;19.10;46.80;;;;;;4795046;29;20185;-85
2021/12/06 05:16:47;;;;;;;6.70;2.80;;;19.10;46.80;;;;;;4809686;29;20162;-84
2021/12/06 05:19:37;;;;;;;4.40;2.72;;;19.10;46.80;;;;;;4757873;30;20188;-84
2021/12/06 05:22:05;;;;;;;6.00;2.88;;;19.10;46.70;;;;;;4757992;30;20179;-83
2021/12/06 05:24:40;;;;;;;6.43;2.80;;;19.10;46.70;;;;;;4787428;30;20280;-83
2021/12/06 05:27:05;;;;;;;6.55;2.63;;;19.20;46.70;;;;;;4743226;30;20171;-84
2021/12/06 05:29:32;;;;;;;4.32;2.65;;;19.10;46.60;;;;;;4758423;30;20282;-84
2021/12/06 05:32:01;;;;;;;6.13;3.33;;;19.10;46.50;;;;;;4743072;30;20195;-83
2021/12/06 05:34:37;;;;;;;4.82;2.67;;;19.10;46.50;;;;;;4757831;30;20184;-85
2021/12/06 05:37:04;;;;;;;4.78;2.40;;;19.20;46.40;;;;;;4759301;30;20168;-84
2021/12/06 05:39:30;;;;;;;9.15;2.88;;;19.20;46.40;;;;;;4757746;30;20278;-84
2021/12/06 05:41:59;;;;;;;4.38;2.45;;;19.20;46.30;;;;;;4757769;30;20679;-84
2021/12/06 05:44:24;;;;;;;4.95;2.40;;;19.20;46.40;;;;;;4757549;30;20677;-83
2021/12/06 05:47:08;;;;;;;4.55;2.30;;;19.20;46.40;;;;;;4772246;30;20227;-84
2021/12/06 05:49:33;;;;;;;4.07;2.20;;;19.20;46.20;;;;;;4745190;30;20187;-84
2021/12/06 05:51:59;;;;;;;3.95;2.15;;;19.20;46.20;;;;;;4772176;30;20223;-84
2021/12/06 05:54:31;;;;;;;5.32;2.53;;;19.20;46.10;;;;;;4772270;30;20652;-84
2021/12/06 05:57:00;;;;;;;4.85;2.50;;;19.20;46.20;;;;;;4757609;30;20233;-84
2021/12/06 05:59:30;;;;;;;5.00;2.60;;;19.20;46.20;;;;;;4772391;30;20225;-84
2021/12/06 06:02:02;;;;;;;4.55;2.40;;;19.20;46.10;;;;;;4757443;30;20559;-84
2021/12/06 06:04:30;;;;;;;3.92;2.50;;;19.20;46.00;;;;;;4772005;30;20250;-83
2021/12/06 06:06:56;;;;;;;6.13;2.50;;;19.20;45.90;;;;;;4787076;30;20631;-84
2021/12/06 06:09:22;;;;;;;3.78;2.30;;;19.20;45.90;;;;;;4757434;30;20221;-84
2021/12/06 06:11:50;;;;;;;7.93;2.58;;;19.20;46.00;;;;;;4772095;30;20302;-84
2021/12/06 06:14:16;;;;;;;6.07;2.53;;;19.20;45.90;;;;;;4786966;29;20297;-84
2021/12/06 06:19:32;;;;;;;4.63;2.60;;;19.20;45.90;;;;;;4810852;29;20614;-84
2021/12/06 06:21:57;;;;;;;6.18;2.67;;;19.20;45.80;;;;;;4794195;29;20613;-84
2021/12/06 06:24:23;;;;;;;4.25;2.28;;;19.20;45.90;;;;;;4808780;29;20163;-84
2021/12/06 06:26:52;;;;;;;4.53;2.50;;;19.20;45.70;;;;;;4793652;29;20181;-84
2021/12/06 06:29:17;;;;;;;4.20;2.30;;;19.20;45.70;;;;;;4793598;29;20170;-84
2021/12/06 06:31:43;;;;;;;4.95;2.30;;;19.20;45.70;;;;;;4793402;29;20190;-84
2021/12/06 06:34:09;;;;;;;4.13;2.50;;;19.30;45.70;;;;;;4809137;29;20262;-84
2021/12/06 06:36:35;;;;;;;5.93;2.60;;;19.20;45.50;;;;;;4825108;29;20172;-84
2021/12/06 06:39:02;;;;;;;5.10;2.50;;;19.20;45.50;;;;;;4809655;29;20151;-84
2021/12/06 06:41:31;;;;;;;5.18;2.38;;;19.20;45.60;;;;;;4795761;29;20186;-84
2021/12/06 06:43:57;;;;;;;4.35;2.45;;;19.20;45.50;;;;;;4793818;29;20593;-85
2021/12/06 06:46:23;;;;;;;4.43;2.15;;;19.20;45.40;;;;;;4793864;29;20566;-84
2021/12/06 06:48:49;;;;;;;4.43;2.33;;;19.20;45.40;;;;;;4794868;29;20757;-83
2021/12/06 06:51:15;;;;;;;5.38;2.50;;;19.20;45.30;;;;;;4780210;29;20331;-83
2021/12/06 06:53:45;;;;;;;5.90;2.15;;;19.20;45.30;;;;;;4781368;29;20175;-84
2021/12/06 06:56:22;;;;;;;5.80;2.70;;;19.20;45.30;;;;;;4809768;29;20250;-84
2021/12/06 06:58:50;;;;;;;4.60;2.28;;;19.30;45.30;;;;;;4814740;29;20170;-84
2021/12/06 07:01:27;;;;;;;3.45;2.17;;;19.30;45.30;;;;;;4813299;29;20198;-85
2021/12/06 07:03:54;;;;;;;3.85;2.03;;;19.30;45.30;;;;;;4799205;29;20174;-83
2021/12/06 07:06:32;;;;;;;;;;;;;;;;;;;;;
2021/12/06 07:08:58;;;;;;;4.07;2.20;;;19.30;44.60;;;;;;4759958;30;20214;-84
2021/12/06 07:11:28;;;;;;;2.55;2.03;;;19.30;44.60;;;;;;4775726;30;20744;-83
2021/12/06 07:13:55;;;;;;;5.03;2.22;;;19.30;44.80;;;;;;4760164;30;20167;-84
2021/12/06 07:16:29;;;;;;;6.20;2.50;;;19.20;44.70;;;;;;4743864;30;20605;-83
2021/12/06 07:18:57;;;;;;;3.40;2.25;;;19.30;44.90;;;;;;4758261;30;20240;-81
2021/12/06 07:21:24;;;;;;;3.70;2.60;;;19.30;45.00;;;;;;4759242;30;20268;-83
2021/12/06 07:23:51;;;;;;;3.35;1.95;;;19.30;44.80;;;;;;4758386;30;20743;-84
2021/12/06 07:26:18;;;;;;;3.15;2.10;;;19.20;44.30;;;;;;4757271;30;20187;-82
2021/12/06 07:28:45;;;;;;;4.75;2.20;;;19.30;44.00;;;;;;4771816;30;20200;-82
2021/12/06 07:31:14;;;;;;;3.42;2.35;;;19.30;44.30;;;;;;4759247;30;20233;-87
2021/12/06 07:33:46;;;;;;;2.90;1.80;;;19.30;44.40;;;;;;4776852;29;20201;-89
2021/12/06 07:36:14;;;;;;;4.57;2.47;;;19.30;44.40;;;;;;4786658;29;20197;-89
2021/12/06 07:39:15;;;;;;;4.88;1.88;;;19.30;44.60;;;;;;4783151;29;20182;-89
2021/12/06 07:41:41;;;;;;;4.10;2.00;;;19.30;44.30;;;;;;4808406;29;20208;-87
2021/12/06 07:44:07;;;;;;;2.67;2.03;;;19.30;44.10;;;;;;4782716;29;20521;-88
2021/12/06 07:46:32;;;;;;;4.45;2.15;;;19.30;44.20;;;;;;4799020;29;20237;-85
2021/12/06 07:48:59;;;;;;;4.90;2.03;;;19.30;44.20;;;;;;4785225;29;20192;-85
2021/12/06 07:51:27;;;;;;;3.22;2.30;;;19.30;44.10;;;;;;4813365;29;20246;-89
2021/12/06 07:53:53;;;;;;;3.60;2.10;;;19.30;44.00;;;;;;4814523;29;20591;-86
2021/12/06 07:56:21;;;;;;;3.42;2.40;;;19.40;44.20;;;;;;4782716;29;20189;-86
2021/12/06 07:58:47;;;;;;;3.38;2.15;;;19.40;44.00;;;;;;4813869;29;20549;-86
2021/12/06 08:01:13;;;;;;;4.05;2.17;;;19.30;44.40;;;;;;4786398;29;20249;-80
2021/12/06 08:03:41;;;;;;;4.63;2.42;;;19.40;44.10;;;;;;4788870;29;20177;-77
2021/12/06 08:06:08;;;;;;;3.17;2.15;;;19.40;44.70;;;;;;4799173;29;20227;-82
2021/12/06 08:08:38;;;;;;;4.38;2.50;;;19.40;44.70;;;;;;4819033;29;20246;-79
2021/12/06 08:11:10;;;;;;;5.63;2.38;;;19.40;44.80;;;;;;4789679;29;20255;-79
2021/12/06 08:13:44;;;;;;;3.35;2.20;;;19.30;45.40;;;;;;4805477;29;20186;-81
2021/12/06 08:16:16;;;;;;;4.03;1.98;;;19.30;45.30;;;;;;4821151;29;20178;-79
2021/12/06 08:18:46;;;;;;;3.15;2.30;;;19.30;45.00;;;;;;4791882;29;20563;-79
2021/12/06 08:21:38;;;;;;;2.88;2.08;;;19.30;44.70;;;;;;4805557;29;20186;-78
2021/12/06 08:24:07;;;;;;;3.83;2.17;;;19.40;44.40;;;;;;4800665;29;20197;-79
2021/12/06 08:26:36;;;;;;;3.50;2.25;;;19.40;44.10;;;;;;4780678;30;20247;-80
2021/12/06 08:29:06;;;;;;;3.22;2.25;;;19.30;45.30;;;;;;4766617;30;20374;-80
2021/12/06 08:31:37;;;;;;;3.08;2.03;;;19.30;44.60;;;;;;4765798;30;20242;-80
2021/12/06 08:34:05;;;;;;;3.33;2.03;;;19.40;44.50;;;;;;4741452;30;20201;-79
2021/12/06 08:36:32;;;;;;;3.03;2.10;;;19.40;44.40;;;;;;4728460;30;20314;-79
2021/12/06 08:38:59;;;;;;;4.93;2.60;;;19.30;44.00;;;;;;4727740;30;20217;-78
2021/12/06 08:41:30;;;;;;;4.68;2.15;;;19.40;43.70;;;;;;4727609;30;20284;-79
2021/12/06 08:44:02;;;;;;;9.60;2.10;;;19.40;43.80;;;;;;4713499;30;20226;-79
2021/12/06 09:08:18;;;;;;;5.63;2.15;;;19.30;44.60;;;;;;4739638;30;20313;-78
2021/12/06 09:10:44;;;;;;;6.05;2.20;;;19.40;43.60;;;;;;4746212;29;20229;-79
2021/12/06 09:13:13;;;;;;;3.92;2.05;;;19.40;44.80;;;;;;4801356;29;20207;-79
2021/12/06 09:15:47;;;;;;;4.70;2.40;;;19.30;43.90;;;;;;4800122;29;20224;-79
2021/12/06 09:18:13;;;;;;;3.97;2.22;;;19.40;43.50;;;;;;4766795;30;20317;-78
2021/12/06 09:20:48;;;;;;;6.90;2.25;;;19.40;44.00;;;;;;4764903;30;20250;-80
2021/12/06 09:23:14;;;;;;;7.28;2.10;;;19.40;44.30;;;;;;4726805;30;20279;-78
2021/12/06 09:25:42;;;;;;;8.27;2.58;;;19.40;44.10;;;;;;4712095;30;20190;-79
2021/12/06 09:28:08;;;;;;;7.72;2.45;;;19.30;44.30;;;;;;4697867;30;20302;-80
2021/12/06 09:30:34;;;;;;;7.10;2.33;;;19.30;43.90;;;;;;4710533;30;20189;-80
2021/12/06 09:33:05;;;;;;;9.85;2.65;;;19.40;43.90;;;;;;4729755;30;20236;-80
2021/12/06 09:35:34;;;;;;;8.85;3.13;;;19.40;43.40;;;;;;4744259;30;20216;-80
2021/12/06 09:38:01;;;;;;;8.93;2.50;;;19.40;43.20;;;;;;4729489;30;20185;-79
2021/12/06 09:40:29;;;;;;;11.25;2.70;;;19.40;43.20;;;;;;4713849;30;20232;-80
2021/12/06 09:42:57;;;;;;;5.80;2.50;;;19.40;43.50;;;;;;4728706;30;20217;-79
2021/12/06 09:45:29;;;;;;;8.43;2.70;;;19.40;43.30;;;;;;4729363;30;20319;-80
2021/12/06 09:47:55;;;;;;;8.98;2.80;;;19.40;43.70;;;;;;4729441;30;20209;-81
2021/12/06 09:50:29;;;;;;;11.05;2.88;;;19.40;43.00;;;;;;4729365;30;20181;-80
2021/12/06 09:53:09;;;;;;;10.45;2.50;;;19.40;44.00;;;;;;4725870;30;20217;-79
2021/12/06 09:55:49;;;;;;;19.30;3.05;;;19.40;44.40;;;;;;4731626;30;20569;-80
2021/12/06 09:58:15;;;;;;;16.75;2.80;;;19.40;43.50;;;;;;4750287;30;20200;-79
2021/12/06 10:00:51;;;;;;;9.88;2.83;;;19.40;44.50;;;;;;4783272;29;20204;-82
2021/12/06 10:03:22;;;;;;;11.05;2.50;;;19.40;43.90;;;;;;4801288;29;20629;-80
2021/12/06 10:05:57;;;;;;;8.63;2.70;;;19.40;44.10;;;;;;4771327;29;20176;-81
2021/12/06 10:08:23;;;;;;;10.25;2.67;;;19.40;44.70;;;;;;4786517;29;20175;-79
2021/12/06 10:10:50;;;;;;;9.48;2.67;;;19.40;44.20;;;;;;4787569;29;20231;-82
2021/12/06 10:13:19;;;;;;;11.52;2.50;;;19.40;44.20;;;;;;4819167;29;20182;-79
2021/12/06 10:15:46;;;;;;;11.00;3.00;;;19.40;44.40;;;;;;4804868;29;20602;-79
2021/12/06 10:18:16;;;;;;;11.63;2.85;;;19.50;44.30;;;;;;4805486;29;20186;-80
2021/12/06 10:20:47;;;;;;;8.00;2.47;;;19.40;44.60;;;;;;4805421;29;20190;-79
2021/12/06 10:23:16;;;;;;;13.07;2.35;;;19.40;44.50;;;;;;4775702;29;20190;-79
2021/12/06 10:25:45;;;;;;;9.20;2.88;;;19.40;44.50;;;;;;4805455;29;20158;-81
2021/12/06 10:28:14;;;;;;;10.93;2.35;;;19.40;44.30;;;;;;4790101;29;20227;-79
2021/12/06 10:30:48;;;;;;;9.15;2.50;;;19.40;44.30;;;;;;4820039;29;20158;-80
2021/12/06 10:33:21;;;;;;;5.70;2.30;;;19.40;44.50;;;;;;4790373;29;20300;-80
2021/12/06 10:35:50;;;;;;;6.00;2.22;;;19.40;44.40;;;;;;4792786;29;20193;-80
2021/12/06 10:38:32;;;;;;;7.32;2.60;;;19.40;44.70;;;;;;4808484;29;20198;-79
2021/12/06 10:41:01;;;;;;;6.68;2.13;;;19.40;44.30;;;;;;4809509;29;20186;-80
2021/12/06 10:43:27;;;;;;;7.68;2.42;;;19.40;44.10;;;;;;4824304;29;20250;-79
2021/12/06 10:45:54;;;;;;;7.50;2.30;;;19.30;44.70;;;;;;4808430;29;20170;-79
2021/12/06 10:48:26;;;;;;;10.68;2.45;;;19.30;43.90;;;;;;4793397;29;20174;-79
2021/12/06 10:50:58;;;;;;;7.05;2.47;;;19.40;44.10;;;;;;4808385;29;20159;-79
2021/12/06 10:53:34;;;;;;;5.75;2.05;;;19.40;44.20;;;;;;4823656;29;20166;-80
2021/12/06 10:56:01;;;;;;;7.28;2.42;;;19.30;43.70;;;;;;4794028;29;20166;-79
2021/12/06 10:58:29;;;;;;;5.38;2.15;;;19.40;44.50;;;;;;4808295;29;20197;-78
2021/12/06 11:01:05;;;;;;;4.80;2.30;;;19.40;44.00;;;;;;4793505;29;20177;-78
2021/12/06 11:03:34;;;;;;;9.77;2.25;;;19.40;44.40;;;;;;4808129;29;20269;-83
2021/12/06 11:06:04;;;;;;;4.50;1.95;;;19.40;44.60;;;;;;4804018;29;20190;-80
2021/12/06 11:08:32;;;;;;;3.67;2.30;;;19.40;44.00;;;;;;4808023;29;20567;-79
2021/12/06 11:10:59;;;;;;;6.40;2.25;;;19.40;44.00;;;;;;4790944;29;20174;-80
2021/12/06 11:13:29;;;;;;;5.15;2.05;;;19.50;43.90;;;;;;4793727;29;20177;-80
2021/12/06 11:16:01;;;;;;;6.72;2.40;;;19.40;44.10;;;;;;4780969;29;20277;-80
2021/12/06 11:18:31;;;;;;;6.63;2.22;;;19.40;43.60;;;;;;4776094;29;20579;-81
2021/12/06 11:20:57;;;;;;;6.80;2.33;;;19.50;43.30;;;;;;4802952;29;20174;-81
2021/12/06 11:23:23;;;;;;;5.22;2.42;;;19.50;43.60;;;;;;4799167;29;20170;-82
2021/12/06 11:25:58;;;;;;;7.40;2.15;;;19.50;43.80;;;;;;4798781;29;20182;-82
2021/12/06 11:28:26;;;;;;;4.97;2.17;;;19.50;43.00;;;;;;4811905;29;20153;-82
2021/12/06 11:31:04;;;;;;;5.43;2.10;;;19.50;43.40;;;;;;4812638;29;20556;-81
2021/12/06 11:33:33;;;;;;;3.67;2.20;;;19.50;43.60;;;;;;4812906;29;20162;-85
2021/12/06 11:36:02;;;;;;;7.72;2.20;;;19.50;43.20;;;;;;4798821;29;20602;-80
2021/12/06 11:38:29;;;;;;;6.85;1.90;;;19.50;43.30;;;;;;4797695;29;20150;-84
2021/12/06 11:40:56;;;;;;;5.05;2.28;;;19.50;43.30;;;;;;4800080;29;20154;-81
2021/12/06 11:43:22;;;;;;;4.85;2.00;;;19.50;43.20;;;;;;4798569;29;20166;-81
2021/12/06 11:45:51;;;;;;;7.22;2.17;;;19.50;42.60;;;;;;4830186;29;20234;-81
2021/12/06 11:48:25;;;;;;;5.70;2.55;;;19.50;43.40;;;;;;4812765;29;20190;-80
2021/12/06 11:50:53;;;;;;;8.90;2.72;;;19.50;44.00;;;;;;4816614;29;20193;-83
2021/12/06 11:53:22;;;;;;;4.10;2.10;;;19.50;43.80;;;;;;4798010;29;20201;-82
2021/12/06 11:55:50;;;;;;;9.38;2.10;;;19.50;43.70;;;;;;4813989;29;20155;-81
2021/12/06 11:58:32;;;;;;;4.93;2.03;;;19.50;44.00;;;;;;4813221;29;20169;-84
2021/12/06 12:01:21;;;;;;;4.38;2.10;;;19.50;42.30;;;;;;4814699;29;20178;-83
2021/12/06 12:03:52;;;;;;;2.75;1.63;;;19.50;42.80;;;;;;4798960;29;20181;-86
2021/12/06 12:06:40;;;;;;;5.47;2.10;;;19.50;43.10;;;;;;4780111;29;20185;-84
2021/12/06 12:09:25;;;;;;;2.92;1.80;;;19.50;43.30;;;;;;4799523;29;20255;-85
2021/12/06 12:12:13;;;;;;;5.22;1.85;;;19.50;44.40;;;;;;4766708;29;20221;-83
2021/12/06 12:14:46;;;;;;;4.47;2.40;;;19.40;43.30;;;;;;4785741;29;20209;-83
2021/12/06 12:17:18;;;;;;;4.55;1.90;;;19.50;43.70;;;;;;4782922;29;20178;-85
2021/12/06 12:19:46;;;;;;;3.08;2.10;;;19.40;43.30;;;;;;4800901;29;20626;-85
2021/12/06 12:22:12;;;;;;;7.30;2.28;;;19.40;43.30;;;;;;4820412;29;20191;-85
2021/12/06 12:24:44;;;;;;;2.75;1.65;;;19.40;43.40;;;;;;4819958;29;20158;-85
2021/12/06 12:27:30;;;;;;;3.78;2.10;;;19.50;43.70;;;;;;4818266;29;20178;-83
2021/12/06 12:29:59;;;;;;;3.13;2.30;;;19.50;42.70;;;;;;4818235;29;20181;-85
2021/12/06 12:32:31;;;;;;;3.90;2.33;;;19.60;42.20;;;;;;4812613;29;20201;-84
2021/12/06 12:34:59;;;;;;;4.32;1.88;;;19.50;43.40;;;;;;4807084;29;20526;-87
2021/12/06 12:37:27;;;;;;;4.70;1.92;;;19.50;42.40;;;;;;4814076;29;20253;-87
2021/12/06 12:40:00;;;;;;;4.60;1.70;;;19.50;43.30;;;;;;4786079;29;20170;-85
2021/12/06 12:42:25;;;;;;;4.65;1.95;;;19.60;43.10;;;;;;4814390;29;20159;-83
2021/12/06 12:44:53;;;;;;;3.40;1.83;;;19.50;43.20;;;;;;4799384;29;20177;-83
2021/12/06 12:47:26;;;;;;;6.68;2.15;;;19.50;43.40;;;;;;4820373;29;20257;-83
2021/12/06 12:49:55;;;;;;;4.63;2.22;;;19.50;43.10;;;;;;4800357;29;20162;-81
2021/12/06 12:52:46;;;;;;;3.10;2.00;;;19.40;43.00;;;;;;4807089;29;20228;-85
2021/12/06 12:55:30;;;;;;;2.85;1.85;;;19.50;43.10;;;;;;4793845;29;20174;-85
2021/12/06 12:58:09;;;;;;;3.63;2.00;;;19.50;42.70;;;;;;4779272;29;20269;-84
2021/12/06 13:00:48;;;;;;;2.10;1.60;;;19.50;43.50;;;;;;4802223;29;20195;-81
2021/12/06 13:03:30;;;;;;;4.47;2.28;;;19.50;43.20;;;;;;4797346;29;20178;-82
2021/12/06 13:06:27;;;;;;;5.95;2.10;;;19.50;42.80;;;;;;4812559;29;20182;-81
2021/12/06 13:08:58;;;;;;;3.55;2.13;;;19.50;42.60;;;;;;4815163;29;20286;-81
2021/12/06 13:11:29;;;;;;;2.70;1.67;;;19.50;42.90;;;;;;4786593;29;20577;-84
2021/12/06 13:13:58;;;;;;;4.97;2.00;;;19.50;42.90;;;;;;4802503;29;20222;-81
2021/12/06 13:19:16;;;;;;;3.70;1.65;;;19.50;42.80;;;;;;4784932;29;20166;-81
2021/12/06 13:22:02;;;;;;;3.47;1.70;;;19.50;43.00;;;;;;4784297;29;20194;-80
2021/12/06 13:24:36;;;;;;;3.95;1.88;;;19.50;43.10;;;;;;4821424;29;20159;-83
2021/12/06 13:27:07;;;;;;;4.32;1.80;;;19.50;43.10;;;;;;4787375;29;20166;-85
2021/12/06 13:29:44;;;;;;;4.03;1.80;;;19.40;43.00;;;;;;4784223;29;20254;-81
2021/12/06 13:32:33;;;;;;;3.13;1.95;;;19.40;42.80;;;;;;4800548;29;20205;-81
2021/12/06 13:35:23;;;;;;;2.95;1.77;;;19.40;43.20;;;;;;4801875;29;20174;-81
2021/12/06 13:38:14;;;;;;;2.60;1.60;;;19.40;42.50;;;;;;4784177;29;20183;-83